createdAt,value
2023-01-19T08:32:46.085Z,41.69
2023-01-19T08:32:57.693Z,41.40
2023-01-19T08:33:08.991Z,41.23
2023-01-19T08:33:20.539Z,41.09
2023-01-19T08:33:31.837Z,41.05
2023-01-19T08:33:43.382Z,40.98
2023-01-19T08:33:54.668Z,40.97
2023-01-19T08:34:06.205Z,40.93
2023-01-19T08:34:17.498Z,40.95
2023-01-19T08:34:29.055Z,40.89
2023-01-19T08:34:40.374Z,40.89
2023-01-19T08:34:51.920Z,40.87
2023-01-19T08:35:03.207Z,40.87
2023-01-19T08:35:14.762Z,40.86
2023-01-19T08:35:26.046Z,40.85
2023-01-19T08:35:37.589Z,40.84
2023-01-19T08:35:48.884Z,40.82
2023-01-19T08:36:00.438Z,40.80
2023-01-19T08:36:11.733Z,40.82
2023-01-19T08:36:23.277Z,40.81
2023-01-19T08:36:34.586Z,40.79
2023-01-19T08:36:46.136Z,40.78
2023-01-19T08:36:57.425Z,40.80
2023-01-19T08:37:08.962Z,40.76
2023-01-19T08:37:20.249Z,40.78
2023-01-19T08:37:34.056Z,40.79
2023-01-19T08:37:43.422Z,40.78
2023-01-19T08:37:54.983Z,40.77
2023-01-19T08:38:06.267Z,40.78
2023-01-19T08:38:17.813Z,40.77
2023-01-19T08:38:29.104Z,40.80
2023-01-19T08:38:40.664Z,40.77
2023-01-19T08:38:51.958Z,40.78
2023-01-19T08:39:03.498Z,40.76
2023-01-19T08:39:14.776Z,40.76
2023-01-19T08:39:26.395Z,40.75
2023-01-19T08:39:37.712Z,40.74
2023-01-19T08:39:49.269Z,40.77
2023-01-19T08:40:00.570Z,40.74
2023-01-19T08:40:12.131Z,40.76
2023-01-19T08:40:23.417Z,40.74
2023-01-19T08:40:34.949Z,40.76
2023-01-19T08:40:46.241Z,40.75
2023-01-19T08:40:57.798Z,40.75
2023-01-19T08:41:09.150Z,40.77
2023-01-19T08:41:20.721Z,40.74
2023-01-19T08:41:32.006Z,40.75
2023-01-19T08:41:43.574Z,40.76
2023-01-19T08:41:54.860Z,40.77
2023-01-19T08:42:06.418Z,40.78
2023-01-19T08:42:18.760Z,40.73
2023-01-19T08:42:30.068Z,40.74
2023-01-19T08:42:41.645Z,40.78
2023-01-19T08:42:52.943Z,40.75
2023-01-19T08:43:04.521Z,40.76
2023-01-19T08:43:15.802Z,40.77
2023-01-19T08:43:27.351Z,40.75
2023-01-19T08:43:38.653Z,40.77
2023-01-19T08:43:50.230Z,40.79
2023-01-19T08:44:01.563Z,40.79
2023-01-19T08:44:13.117Z,40.76
2023-01-19T08:44:24.406Z,40.75
2023-01-19T08:44:37.881Z,40.74
2023-01-19T08:44:57.559Z,40.87
2023-01-19T08:44:59.795Z,40.85
2023-01-19T08:45:11.106Z,40.86
2023-01-19T08:45:22.646Z,40.79
2023-01-19T08:45:33.932Z,40.79
2023-01-19T08:45:45.472Z,40.78
2023-01-19T08:45:56.786Z,40.79
2023-01-19T08:46:08.422Z,40.78
2023-01-19T08:46:19.872Z,40.79
2023-01-19T08:46:31.536Z,40.79
2023-01-19T08:46:42.919Z,40.80
2023-01-19T08:46:54.474Z,40.79
2023-01-19T08:47:05.864Z,40.77
2023-01-19T08:47:17.523Z,40.79
2023-01-19T08:47:28.925Z,40.80
2023-01-19T08:47:40.587Z,40.79
2023-01-19T08:47:51.909Z,40.79
2023-01-19T08:48:03.461Z,40.81
2023-01-19T08:48:14.803Z,40.78
2023-01-19T08:48:26.363Z,40.80
2023-01-19T08:48:39.749Z,40.82
2023-01-19T08:48:49.127Z,40.87
2023-01-19T08:49:00.665Z,40.82
2023-01-19T08:49:11.947Z,40.82
2023-01-19T08:49:23.493Z,40.80
2023-01-19T08:49:34.781Z,40.80
2023-01-19T08:49:46.320Z,40.78
2023-01-19T08:49:57.609Z,40.80
2023-01-19T08:50:09.180Z,40.80
2023-01-19T08:50:20.473Z,40.77
2023-01-19T08:50:32.050Z,40.79
2023-01-19T08:50:43.402Z,40.81
2023-01-19T08:50:54.947Z,40.76
2023-01-19T08:51:06.225Z,40.79
2023-01-19T08:51:17.767Z,40.80
2023-01-19T08:51:29.065Z,40.77
2023-01-19T08:51:40.628Z,40.80
2023-01-19T08:51:51.919Z,40.78
2023-01-19T08:52:03.472Z,40.78
2023-01-19T08:52:14.768Z,40.80
2023-01-19T08:52:26.332Z,40.79
2023-01-19T08:52:37.632Z,40.80
2023-01-19T08:52:49.191Z,40.81
2023-01-19T08:53:00.957Z,40.79
2023-01-19T08:53:12.795Z,40.82
2023-01-19T08:53:24.119Z,40.84
2023-01-19T08:53:35.673Z,40.81
2023-01-19T08:53:46.980Z,40.81
2023-01-19T08:53:58.529Z,40.80
2023-01-19T08:54:09.823Z,40.81
2023-01-19T08:54:21.389Z,40.78
2023-01-19T08:54:32.669Z,40.77
2023-01-19T08:54:44.223Z,40.80
2023-01-19T08:54:55.532Z,40.80
2023-01-19T08:55:07.065Z,40.79
2023-01-19T08:55:18.358Z,40.80
2023-01-19T08:55:29.912Z,40.77
2023-01-19T08:55:41.201Z,40.78
2023-01-19T08:55:52.759Z,40.79
2023-01-19T08:56:04.048Z,40.78
2023-01-19T08:56:15.584Z,40.80
2023-01-19T08:56:26.884Z,40.78
2023-01-19T08:56:38.436Z,40.80
2023-01-19T08:56:49.730Z,40.80
2023-01-19T08:57:01.285Z,40.77
2023-01-19T08:57:12.584Z,40.78
2023-01-19T08:57:24.154Z,40.79
2023-01-19T08:57:35.466Z,40.80
2023-01-19T08:57:47.010Z,40.77
2023-01-19T08:57:58.434Z,40.78
2023-01-19T08:58:10.049Z,40.79
2023-01-19T08:58:21.338Z,40.80
2023-01-19T08:58:32.924Z,40.77
2023-01-19T08:58:44.227Z,40.76
2023-01-19T08:59:08.186Z,40.78
2023-01-19T08:59:10.413Z,40.88
2023-01-19T08:59:17.991Z,40.86
2023-01-19T08:59:29.299Z,40.85
2023-01-19T08:59:40.851Z,40.81
2023-01-19T08:59:52.182Z,40.79
2023-01-19T09:00:03.910Z,40.80
2023-01-19T09:00:15.227Z,40.79
2023-01-19T09:00:26.768Z,40.79
2023-01-19T09:00:38.093Z,40.78
2023-01-19T09:00:49.689Z,40.77
2023-01-19T09:01:03.016Z,40.78
2023-01-19T09:01:13.132Z,40.86
2023-01-19T09:01:24.908Z,40.80
2023-01-19T09:01:36.305Z,40.81
2023-01-19T09:01:48.217Z,40.80
2023-01-19T09:01:59.700Z,40.79
2023-01-19T09:02:11.387Z,40.78
2023-01-19T09:02:22.874Z,40.78
2023-01-19T09:02:34.745Z,40.80
2023-01-19T09:02:46.152Z,40.79
2023-01-19T09:02:57.844Z,40.79
2023-01-19T09:03:09.243Z,40.78
2023-01-19T09:03:20.849Z,40.78
2023-01-19T09:03:32.239Z,40.77
2023-01-19T09:03:43.835Z,40.77
2023-01-19T09:03:55.122Z,40.77
2023-01-19T09:04:06.661Z,40.77
2023-01-19T09:04:17.961Z,40.74
2023-01-19T09:04:29.571Z,40.77
2023-01-19T09:04:40.856Z,40.78
2023-01-19T09:04:52.394Z,40.76
2023-01-19T09:05:03.689Z,40.76
2023-01-19T09:05:15.227Z,40.75
2023-01-19T09:05:26.524Z,40.75
2023-01-19T09:05:38.078Z,40.76
2023-01-19T09:05:49.360Z,40.75
2023-01-19T09:06:00.926Z,40.75
2023-01-19T09:06:12.222Z,40.75
2023-01-19T09:06:23.771Z,40.75
2023-01-19T09:06:35.054Z,40.76
2023-01-19T09:06:46.616Z,40.75
2023-01-19T09:06:57.902Z,40.75
2023-01-19T09:07:09.437Z,40.76
2023-01-19T09:07:20.736Z,40.77
2023-01-19T09:07:34.012Z,40.75
2023-01-19T09:07:42.787Z,40.76
2023-01-19T09:07:54.061Z,40.75
2023-01-19T09:08:05.602Z,40.77
2023-01-19T09:08:16.905Z,40.73
2023-01-19T09:08:28.463Z,40.73
2023-01-19T09:08:39.753Z,40.75
2023-01-19T09:08:51.344Z,40.74
2023-01-19T09:09:02.628Z,40.77
2023-01-19T09:09:14.173Z,40.73
2023-01-19T09:09:25.451Z,40.74
2023-01-19T09:09:37.016Z,40.73
2023-01-19T09:09:48.341Z,40.72
2023-01-19T09:09:59.875Z,40.73
2023-01-19T09:10:11.350Z,40.72
2023-01-19T09:10:22.900Z,40.71
2023-01-19T09:10:34.198Z,40.72
2023-01-19T09:10:45.765Z,40.73
2023-01-19T09:10:57.127Z,40.72
2023-01-19T09:11:08.676Z,40.71
2023-01-19T09:11:19.967Z,40.74
2023-01-19T09:11:31.551Z,40.70
2023-01-19T09:11:42.866Z,40.71
2023-01-19T09:11:54.419Z,40.70
2023-01-19T09:12:05.710Z,40.71
2023-01-19T09:12:17.250Z,40.70
2023-01-19T09:12:28.538Z,40.71
2023-01-19T09:12:40.079Z,40.70
2023-01-19T09:12:51.368Z,40.71
2023-01-19T09:13:02.927Z,40.67
2023-01-19T09:13:14.245Z,40.70
2023-01-19T09:13:25.803Z,40.70
2023-01-19T09:13:37.097Z,40.70
2023-01-19T09:13:48.687Z,40.71
2023-01-19T09:14:00.031Z,40.71
2023-01-19T09:14:11.575Z,40.69
2023-01-19T09:14:22.906Z,40.70
2023-01-19T09:14:34.501Z,40.69
2023-01-19T09:14:45.865Z,40.71
2023-01-19T09:14:57.423Z,40.70
2023-01-19T09:15:08.801Z,40.68
2023-01-19T09:15:20.370Z,40.69
2023-01-19T09:15:31.661Z,40.68
2023-01-19T09:15:43.506Z,40.68
2023-01-19T09:15:54.958Z,40.71
2023-01-19T09:16:06.546Z,40.69
2023-01-19T09:16:17.860Z,40.67
2023-01-19T09:16:29.427Z,40.67
2023-01-19T09:16:40.724Z,40.66
2023-01-19T09:16:52.287Z,40.67
2023-01-19T09:17:03.577Z,40.69
2023-01-19T09:17:15.136Z,40.66
2023-01-19T09:17:26.440Z,40.66
2023-01-19T09:17:38.001Z,40.70
2023-01-19T09:17:49.292Z,40.66
2023-01-19T09:18:01.329Z,40.65
2023-01-19T09:18:13.051Z,40.64
2023-01-19T09:18:24.349Z,40.65
2023-01-19T09:18:35.898Z,40.67
2023-01-19T09:18:47.194Z,40.65
2023-01-19T09:18:58.788Z,40.65
2023-01-19T09:19:10.128Z,40.66
2023-01-19T09:19:21.679Z,40.65
2023-01-19T09:19:34.927Z,40.65
2023-01-19T09:19:44.251Z,40.69
2023-01-19T09:19:55.796Z,40.69
2023-01-19T09:20:07.106Z,40.66
2023-01-19T09:20:18.721Z,40.66
2023-01-19T09:20:30.045Z,40.64
2023-01-19T09:20:41.593Z,40.65
2023-01-19T09:20:52.899Z,40.64
2023-01-19T09:21:04.458Z,40.63
2023-01-19T09:21:15.763Z,40.65
2023-01-19T09:21:27.318Z,40.63
2023-01-19T09:21:38.913Z,40.64
2023-01-19T09:21:50.477Z,40.64
2023-01-19T09:22:01.763Z,40.61
2023-01-19T09:22:13.308Z,40.65
2023-01-19T09:22:24.619Z,40.64
2023-01-19T09:22:36.176Z,40.65
2023-01-19T09:22:47.599Z,40.63
2023-01-19T09:22:59.182Z,40.63
2023-01-19T09:23:10.467Z,40.62
2023-01-19T09:23:21.998Z,40.63
2023-01-19T09:23:33.292Z,40.61
2023-01-19T09:23:44.836Z,40.64
2023-01-19T09:23:56.118Z,40.62
2023-01-19T09:24:07.655Z,40.60
2023-01-19T09:24:18.983Z,40.64
2023-01-19T09:24:30.526Z,40.62
2023-01-19T09:24:41.819Z,40.60
2023-01-19T09:24:53.355Z,40.58
2023-01-19T09:25:04.647Z,40.61
2023-01-19T09:25:16.227Z,40.60
2023-01-19T09:25:27.536Z,40.61
2023-01-19T09:25:39.084Z,40.61
2023-01-19T09:25:50.383Z,40.62
2023-01-19T09:26:01.925Z,40.58
2023-01-19T09:26:13.201Z,40.62
2023-01-19T09:26:24.742Z,40.61
2023-01-19T09:26:36.037Z,40.60
2023-01-19T09:26:47.579Z,40.61
2023-01-19T09:26:58.910Z,40.61
2023-01-19T09:27:10.450Z,40.59
2023-01-19T09:27:21.723Z,40.59
2023-01-19T09:27:33.280Z,40.62
2023-01-19T09:27:44.576Z,40.61
2023-01-19T09:27:56.122Z,40.59
2023-01-19T09:28:07.401Z,40.59
2023-01-19T09:28:18.951Z,40.60
2023-01-19T09:28:30.264Z,40.59
2023-01-19T09:28:41.832Z,40.56
2023-01-19T09:28:53.134Z,40.60
2023-01-19T09:29:04.688Z,40.57
2023-01-19T09:29:15.974Z,40.59
2023-01-19T09:29:27.571Z,40.59
2023-01-19T09:29:38.907Z,40.59
2023-01-19T09:29:50.483Z,40.57
2023-01-19T09:30:01.803Z,40.59
2023-01-19T09:30:13.344Z,40.57
2023-01-19T09:30:24.710Z,40.58
2023-01-19T09:30:36.311Z,40.56
2023-01-19T09:30:47.765Z,40.57
2023-01-19T09:30:59.528Z,40.57
2023-01-19T09:31:11.143Z,40.56
2023-01-19T09:31:22.871Z,40.59
2023-01-19T09:31:34.230Z,40.56
2023-01-19T09:31:45.856Z,40.58
2023-01-19T09:31:57.262Z,40.58
2023-01-19T09:32:08.821Z,40.60
2023-01-19T09:32:20.105Z,40.56
2023-01-19T09:32:31.647Z,40.54
2023-01-19T09:32:43.034Z,40.56
2023-01-19T09:32:54.592Z,40.58
2023-01-19T09:33:05.914Z,40.56
2023-01-19T09:33:17.503Z,40.55
2023-01-19T09:33:28.803Z,40.56
2023-01-19T09:33:40.352Z,40.57
2023-01-19T09:33:51.635Z,40.55
2023-01-19T09:34:03.177Z,40.52
2023-01-19T09:34:14.457Z,40.58
2023-01-19T09:34:25.998Z,40.55
2023-01-19T09:34:37.332Z,40.53
2023-01-19T09:34:48.864Z,40.53
2023-01-19T09:35:00.143Z,40.53
2023-01-19T09:35:11.675Z,40.54
2023-01-19T09:35:22.971Z,40.53
2023-01-19T09:35:34.512Z,40.54
2023-01-19T09:35:45.800Z,40.56
2023-01-19T09:35:57.379Z,40.54
2023-01-19T09:36:08.657Z,40.56
2023-01-19T09:36:20.194Z,40.53
2023-01-19T09:36:31.476Z,40.54
2023-01-19T09:36:43.028Z,40.53
2023-01-19T09:36:54.317Z,40.54
2023-01-19T09:37:05.875Z,40.54
2023-01-19T09:37:17.169Z,40.53
2023-01-19T09:37:28.734Z,40.54
2023-01-19T09:37:40.025Z,40.53
2023-01-19T09:37:51.569Z,40.57
2023-01-19T09:38:03.348Z,40.53
2023-01-19T09:38:15.039Z,40.54
2023-01-19T09:38:26.445Z,40.55
2023-01-19T09:38:38.017Z,40.53
2023-01-19T09:38:49.314Z,40.52
2023-01-19T09:39:00.853Z,40.54
2023-01-19T09:39:12.145Z,40.53
2023-01-19T09:39:23.700Z,40.53
2023-01-19T09:39:35.026Z,40.53
2023-01-19T09:39:46.676Z,40.52
2023-01-19T09:39:58.068Z,40.53
2023-01-19T09:40:09.650Z,40.51
2023-01-19T09:40:21.050Z,40.50
2023-01-19T09:40:32.654Z,40.49
2023-01-19T09:40:43.945Z,40.52
2023-01-19T09:40:55.503Z,40.52
2023-01-19T09:41:06.825Z,40.50
2023-01-19T09:41:18.371Z,40.51
2023-01-19T09:41:29.664Z,40.50
2023-01-19T09:41:41.220Z,40.51
2023-01-19T09:41:52.528Z,40.50
2023-01-19T09:42:04.075Z,40.51
2023-01-19T09:42:15.359Z,40.51
2023-01-19T09:42:26.954Z,40.51
2023-01-19T09:42:38.261Z,40.50
2023-01-19T09:42:49.823Z,40.52
2023-01-19T09:43:01.116Z,40.52
2023-01-19T09:43:12.670Z,40.51
2023-01-19T09:43:23.967Z,40.50
2023-01-19T09:43:35.528Z,40.50
2023-01-19T09:43:46.820Z,40.50
2023-01-19T09:43:58.396Z,40.48
2023-01-19T09:44:09.680Z,40.49
2023-01-19T09:44:21.225Z,40.50
2023-01-19T09:44:32.511Z,40.48
2023-01-19T09:44:44.062Z,40.48
2023-01-19T09:44:55.408Z,40.49
2023-01-19T09:45:07.011Z,40.49
2023-01-19T09:45:18.362Z,40.48
2023-01-19T09:45:29.911Z,40.48
2023-01-19T09:45:41.203Z,40.50
2023-01-19T09:45:52.752Z,40.49
2023-01-19T09:46:04.164Z,40.50
2023-01-19T09:46:15.884Z,40.51
2023-01-19T09:46:27.303Z,40.49
2023-01-19T09:46:39.042Z,40.49
2023-01-19T09:46:50.497Z,40.50
2023-01-19T09:47:02.072Z,40.49
2023-01-19T09:47:13.397Z,40.50
2023-01-19T09:47:24.941Z,40.47
2023-01-19T09:47:36.234Z,40.49
2023-01-19T09:47:47.953Z,40.50
2023-01-19T09:47:59.661Z,40.50
2023-01-19T09:48:11.419Z,40.49
2023-01-19T09:48:22.711Z,40.50
2023-01-19T09:48:34.256Z,40.49
2023-01-19T09:48:45.545Z,40.51
2023-01-19T09:48:57.086Z,40.49
2023-01-19T09:49:08.373Z,40.49
2023-01-19T09:49:19.916Z,40.46
2023-01-19T09:49:31.222Z,40.49
2023-01-19T09:49:42.769Z,40.49
2023-01-19T09:49:54.073Z,40.46
2023-01-19T09:50:05.661Z,40.48
2023-01-19T09:50:16.956Z,40.50
2023-01-19T09:50:28.498Z,40.48
2023-01-19T09:50:39.806Z,40.48
2023-01-19T09:50:51.364Z,40.47
2023-01-19T09:51:02.659Z,40.46
2023-01-19T09:51:14.190Z,40.50
2023-01-19T09:51:25.468Z,40.48
2023-01-19T09:51:37.026Z,40.46
2023-01-19T09:51:48.351Z,40.47
2023-01-19T09:51:59.909Z,40.48
2023-01-19T09:52:11.195Z,40.48
2023-01-19T09:52:22.733Z,40.48
2023-01-19T09:52:34.016Z,40.45
2023-01-19T09:52:45.587Z,40.47
2023-01-19T09:52:56.881Z,40.46
2023-01-19T09:53:08.419Z,40.46
2023-01-19T09:53:19.708Z,40.46
2023-01-19T09:53:31.236Z,40.43
2023-01-19T09:53:42.539Z,40.43
2023-01-19T09:53:54.136Z,40.45
2023-01-19T09:54:05.480Z,40.47
2023-01-19T09:54:17.069Z,40.46
2023-01-19T09:54:28.357Z,40.45
2023-01-19T09:54:39.897Z,40.47
2023-01-19T09:54:51.183Z,40.43
2023-01-19T09:55:02.729Z,40.45
2023-01-19T09:55:14.030Z,40.44
2023-01-19T09:55:25.577Z,40.45
2023-01-19T09:55:36.874Z,40.46
2023-01-19T09:55:48.428Z,40.43
2023-01-19T09:55:59.710Z,40.47
2023-01-19T09:56:11.254Z,40.44
2023-01-19T09:56:22.553Z,40.44
2023-01-19T09:56:34.103Z,40.47
2023-01-19T09:56:45.383Z,40.46
2023-01-19T09:56:56.910Z,40.46
2023-01-19T09:57:08.193Z,40.44
2023-01-19T09:57:19.735Z,40.44
2023-01-19T09:57:31.024Z,40.43
2023-01-19T09:57:42.575Z,40.47
2023-01-19T09:57:53.859Z,40.45
2023-01-19T09:58:05.400Z,40.45
2023-01-19T09:58:16.706Z,40.44
2023-01-19T09:58:28.237Z,40.44
2023-01-19T09:58:39.519Z,40.45
2023-01-19T09:58:51.160Z,40.43
2023-01-19T09:59:02.462Z,40.45
2023-01-19T09:59:14.013Z,40.46
2023-01-19T09:59:25.403Z,40.47
2023-01-19T09:59:36.967Z,40.46
2023-01-19T09:59:48.248Z,40.46
2023-01-19T09:59:59.978Z,40.44
2023-01-19T10:00:11.316Z,40.46
2023-01-19T10:00:22.911Z,40.46
2023-01-19T10:00:34.204Z,40.46
2023-01-19T10:00:45.815Z,40.45
2023-01-19T10:00:57.217Z,40.46
2023-01-19T10:01:08.903Z,40.45
2023-01-19T10:01:20.409Z,40.46
2023-01-19T10:01:34.575Z,40.50
2023-01-19T10:01:42.185Z,40.50
2023-01-19T10:01:53.613Z,40.50
2023-01-19T10:02:05.181Z,40.48
2023-01-19T10:02:16.468Z,40.45
2023-01-19T10:02:28.014Z,40.48
2023-01-19T10:02:39.381Z,40.48
2023-01-19T10:02:51.029Z,40.48
2023-01-19T10:03:02.796Z,40.44
2023-01-19T10:03:14.767Z,40.50
2023-01-19T10:03:26.163Z,40.49
2023-01-19T10:03:37.735Z,40.46
2023-01-19T10:03:49.030Z,40.45
2023-01-19T10:04:00.574Z,40.46
2023-01-19T10:04:11.859Z,40.46
2023-01-19T10:04:23.407Z,40.44
2023-01-19T10:04:34.708Z,40.46
2023-01-19T10:04:46.260Z,40.47
2023-01-19T10:04:57.556Z,40.45
2023-01-19T10:05:09.104Z,40.47
2023-01-19T10:05:20.409Z,40.47
2023-01-19T10:05:32.000Z,40.47
2023-01-19T10:05:43.295Z,40.46
2023-01-19T10:05:54.852Z,40.45
2023-01-19T10:06:06.138Z,40.46
2023-01-19T10:06:17.686Z,40.46
2023-01-19T10:06:29.017Z,40.44
2023-01-19T10:06:40.558Z,40.45
2023-01-19T10:06:51.844Z,40.46
2023-01-19T10:07:03.384Z,40.46
2023-01-19T10:07:14.673Z,40.49
2023-01-19T10:07:26.225Z,40.47
2023-01-19T10:07:37.535Z,40.47
2023-01-19T10:07:49.084Z,40.46
2023-01-19T10:08:00.728Z,40.49
2023-01-19T10:08:12.420Z,40.47
2023-01-19T10:08:23.713Z,40.47
2023-01-19T10:08:35.244Z,40.46
2023-01-19T10:08:46.551Z,40.46
2023-01-19T10:08:58.126Z,40.45
2023-01-19T10:09:09.412Z,40.46
2023-01-19T10:09:20.953Z,40.48
2023-01-19T10:09:32.253Z,40.47
2023-01-19T10:09:43.789Z,40.45
2023-01-19T10:09:55.067Z,40.46
2023-01-19T10:10:06.607Z,40.47
2023-01-19T10:10:17.885Z,40.45
2023-01-19T10:10:29.434Z,40.47
2023-01-19T10:10:40.774Z,40.47
2023-01-19T10:10:52.324Z,40.48
2023-01-19T10:11:03.625Z,40.48
2023-01-19T10:11:15.172Z,40.47
2023-01-19T10:11:34.347Z,40.48
2023-01-19T10:11:52.113Z,40.61
2023-01-19T10:11:53.002Z,40.62
2023-01-19T10:12:00.445Z,40.58
2023-01-19T10:12:11.922Z,40.55
2023-01-19T10:12:23.471Z,40.50
2023-01-19T10:12:34.758Z,40.48
2023-01-19T10:12:46.309Z,40.50
2023-01-19T10:12:57.593Z,40.49
2023-01-19T10:13:09.139Z,40.46
2023-01-19T10:13:20.732Z,40.48
2023-01-19T10:13:32.267Z,40.46
2023-01-19T10:13:43.551Z,40.48
2023-01-19T10:13:55.084Z,40.48
2023-01-19T10:14:06.409Z,40.46
2023-01-19T10:14:17.951Z,40.48
2023-01-19T10:14:29.238Z,40.48
2023-01-19T10:14:40.796Z,40.49
2023-01-19T10:14:52.114Z,40.49
2023-01-19T10:15:03.688Z,40.47
2023-01-19T10:15:14.977Z,40.47
2023-01-19T10:15:26.524Z,40.49
2023-01-19T10:15:37.833Z,40.48
2023-01-19T10:15:49.464Z,40.48
2023-01-19T10:16:00.825Z,40.46
2023-01-19T10:16:12.439Z,40.48
2023-01-19T10:16:23.771Z,40.46
2023-01-19T10:16:35.359Z,40.47
2023-01-19T10:16:46.656Z,40.48
2023-01-19T10:16:58.215Z,40.47
2023-01-19T10:17:09.492Z,40.50
2023-01-19T10:17:21.031Z,40.48
2023-01-19T10:17:32.350Z,40.48
2023-01-19T10:17:43.891Z,40.48
2023-01-19T10:17:55.167Z,40.48
2023-01-19T10:18:06.716Z,40.49
2023-01-19T10:18:18.170Z,40.48
2023-01-19T10:18:29.728Z,40.50
2023-01-19T10:18:41.021Z,40.50
2023-01-19T10:18:52.564Z,40.48
2023-01-19T10:19:03.856Z,40.49
2023-01-19T10:19:15.407Z,40.50
2023-01-19T10:19:26.706Z,40.48
2023-01-19T10:19:38.300Z,40.51
2023-01-19T10:19:49.578Z,40.51
2023-01-19T10:20:01.125Z,40.51
2023-01-19T10:20:12.400Z,40.50
2023-01-19T10:20:23.967Z,40.48
2023-01-19T10:20:35.273Z,40.52
2023-01-19T10:20:46.822Z,40.51
2023-01-19T10:20:58.162Z,40.50
2023-01-19T10:21:10.019Z,40.52
2023-01-19T10:21:21.409Z,40.50
2023-01-19T10:21:33.167Z,40.52
2023-01-19T10:21:44.489Z,40.50
2023-01-19T10:21:56.073Z,40.49
2023-01-19T10:22:07.396Z,40.50
2023-01-19T10:22:18.940Z,40.50
2023-01-19T10:22:30.243Z,40.49
2023-01-19T10:22:41.798Z,40.51
2023-01-19T10:22:53.123Z,40.51
2023-01-19T10:23:05.008Z,40.51
2023-01-19T10:23:16.448Z,40.53
2023-01-19T10:23:28.012Z,40.49
2023-01-19T10:23:39.311Z,40.52
2023-01-19T10:23:50.881Z,40.47
2023-01-19T10:24:02.189Z,40.52
2023-01-19T10:24:13.858Z,40.50
2023-01-19T10:24:25.160Z,40.52
2023-01-19T10:24:36.705Z,40.52
2023-01-19T10:24:48.008Z,40.50
2023-01-19T10:24:59.612Z,40.50
2023-01-19T10:25:10.927Z,40.52
2023-01-19T10:25:22.598Z,40.50
2023-01-19T10:25:33.976Z,40.53
2023-01-19T10:25:45.611Z,40.52
2023-01-19T10:25:57.020Z,40.50
2023-01-19T10:26:08.674Z,40.53
2023-01-19T10:26:20.006Z,40.53
2023-01-19T10:26:31.561Z,40.52
2023-01-19T10:26:42.871Z,40.53
2023-01-19T10:26:54.418Z,40.52
2023-01-19T10:27:05.741Z,40.53
2023-01-19T10:27:17.343Z,40.50
2023-01-19T10:27:28.662Z,40.53
2023-01-19T10:27:40.209Z,40.54
2023-01-19T10:27:51.524Z,40.51
2023-01-19T10:28:03.098Z,40.55
2023-01-19T10:28:14.408Z,40.52
2023-01-19T10:28:25.985Z,40.50
2023-01-19T10:28:37.297Z,40.51
2023-01-19T10:28:48.902Z,40.52
2023-01-19T10:29:00.181Z,40.51
2023-01-19T10:29:11.897Z,40.52
2023-01-19T10:29:23.226Z,40.53
2023-01-19T10:29:34.871Z,40.52
2023-01-19T10:29:46.208Z,40.50
2023-01-19T10:29:57.767Z,40.53
2023-01-19T10:30:09.088Z,40.52
2023-01-19T10:30:20.642Z,40.54
2023-01-19T10:30:31.975Z,40.51
2023-01-19T10:30:43.552Z,40.51
2023-01-19T10:30:54.939Z,40.52
2023-01-19T10:31:06.629Z,40.53
2023-01-19T10:31:18.218Z,40.55
2023-01-19T10:31:29.921Z,40.53
2023-01-19T10:31:41.434Z,40.52
2023-01-19T10:31:53.213Z,40.55
2023-01-19T10:32:04.639Z,40.54
2023-01-19T10:32:16.271Z,40.55
2023-01-19T10:32:27.565Z,40.55
2023-01-19T10:32:39.278Z,40.54
2023-01-19T10:32:50.635Z,40.53
2023-01-19T10:33:02.674Z,40.55
2023-01-19T10:33:14.409Z,40.48
2023-01-19T10:33:25.738Z,40.54
2023-01-19T10:33:37.277Z,40.52
2023-01-19T10:33:48.610Z,40.52
2023-01-19T10:34:00.181Z,40.53
2023-01-19T10:34:11.594Z,40.55
2023-01-19T10:34:23.847Z,40.52
2023-01-19T10:34:35.505Z,40.48
2023-01-19T10:34:46.806Z,40.52
2023-01-19T10:34:58.360Z,40.53
2023-01-19T10:35:09.706Z,40.50
2023-01-19T10:35:21.257Z,40.52
2023-01-19T10:35:32.586Z,40.53
2023-01-19T10:35:44.158Z,40.55
2023-01-19T10:35:55.493Z,40.54
2023-01-19T10:36:07.104Z,40.54
2023-01-19T10:36:18.503Z,40.52
2023-01-19T10:36:30.055Z,40.53
2023-01-19T10:36:41.362Z,40.54
2023-01-19T10:36:52.900Z,40.56
2023-01-19T10:37:04.190Z,40.53
2023-01-19T10:37:15.870Z,40.50
2023-01-19T10:37:27.182Z,40.55
2023-01-19T10:37:38.732Z,40.52
2023-01-19T10:37:50.093Z,40.55
2023-01-19T10:38:01.705Z,40.53
2023-01-19T10:38:12.982Z,40.54
2023-01-19T10:38:24.539Z,40.56
2023-01-19T10:38:35.864Z,40.54
2023-01-19T10:38:47.429Z,40.54
2023-01-19T10:38:58.756Z,40.54
2023-01-19T10:39:10.329Z,40.52
2023-01-19T10:39:21.628Z,40.56
2023-01-19T10:39:36.991Z,40.54
2023-01-19T10:39:45.169Z,40.63
2023-01-19T10:39:56.459Z,40.58
2023-01-19T10:40:07.992Z,40.55
2023-01-19T10:40:19.364Z,40.56
2023-01-19T10:40:31.024Z,40.56
2023-01-19T10:40:43.054Z,40.51
2023-01-19T10:40:54.339Z,40.53
2023-01-19T10:41:05.892Z,40.55
2023-01-19T10:41:17.263Z,40.54
2023-01-19T10:41:28.990Z,40.56
2023-01-19T10:41:40.289Z,40.55
2023-01-19T10:41:51.823Z,40.54
2023-01-19T10:42:03.105Z,40.53
2023-01-19T10:42:14.693Z,40.55
2023-01-19T10:42:26.010Z,40.56
2023-01-19T10:42:37.616Z,40.53
2023-01-19T10:42:48.940Z,40.54
2023-01-19T10:43:00.949Z,40.57
2023-01-19T10:43:12.717Z,40.52
2023-01-19T10:43:24.052Z,40.54
2023-01-19T10:43:35.668Z,40.54
2023-01-19T10:43:46.950Z,40.57
2023-01-19T10:43:58.550Z,40.56
2023-01-19T10:44:09.879Z,40.53
2023-01-19T10:44:21.459Z,40.55
2023-01-19T10:44:32.778Z,40.57
2023-01-19T10:44:44.475Z,40.58
2023-01-19T10:44:55.799Z,40.55
2023-01-19T10:45:07.347Z,40.56
2023-01-19T10:45:18.648Z,40.55
2023-01-19T10:45:30.374Z,40.56
2023-01-19T10:45:41.733Z,40.57
2023-01-19T10:45:53.361Z,40.56
2023-01-19T10:46:04.777Z,40.58
2023-01-19T10:46:16.479Z,40.58
2023-01-19T10:46:27.792Z,40.57
2023-01-19T10:46:39.353Z,40.57
2023-01-19T10:46:50.634Z,40.57
2023-01-19T10:47:02.190Z,40.55
2023-01-19T10:47:13.478Z,40.58
2023-01-19T10:47:25.029Z,40.57
2023-01-19T10:47:36.358Z,40.58
2023-01-19T10:47:47.971Z,40.56
2023-01-19T10:47:59.318Z,40.57
2023-01-19T10:48:10.891Z,40.57
2023-01-19T10:48:22.174Z,40.57
2023-01-19T10:48:33.866Z,40.57
2023-01-19T10:48:45.199Z,40.57
2023-01-19T10:48:56.734Z,40.58
2023-01-19T10:49:08.082Z,40.58
2023-01-19T10:49:19.686Z,40.58
2023-01-19T10:49:31.025Z,40.59
2023-01-19T10:49:42.582Z,40.56
2023-01-19T10:49:53.898Z,40.58
2023-01-19T10:50:05.450Z,40.59
2023-01-19T10:50:16.783Z,40.60
2023-01-19T10:50:28.333Z,40.55
2023-01-19T10:50:39.890Z,40.58
2023-01-19T10:50:51.580Z,40.58
2023-01-19T10:51:02.872Z,40.59
2023-01-19T10:51:14.501Z,40.56
2023-01-19T10:51:25.792Z,40.56
2023-01-19T10:51:37.358Z,40.58
2023-01-19T10:51:48.834Z,40.58
2023-01-19T10:52:00.414Z,40.59
2023-01-19T10:52:11.771Z,40.60
2023-01-19T10:52:23.347Z,40.58
2023-01-19T10:52:34.623Z,40.57
2023-01-19T10:52:46.193Z,40.57
2023-01-19T10:52:57.578Z,40.58
2023-01-19T10:53:09.162Z,40.60
2023-01-19T10:53:20.526Z,40.56
2023-01-19T10:53:32.086Z,40.59
2023-01-19T10:53:43.388Z,40.58
2023-01-19T10:53:54.951Z,40.57
2023-01-19T10:54:06.280Z,40.58
2023-01-19T10:54:17.828Z,40.57
2023-01-19T10:54:29.122Z,40.58
2023-01-19T10:54:40.688Z,40.56
2023-01-19T10:54:51.979Z,40.60
2023-01-19T10:55:03.606Z,40.57
2023-01-19T10:55:14.909Z,40.57
2023-01-19T10:55:26.461Z,40.58
2023-01-19T10:55:37.796Z,40.56
2023-01-19T10:55:49.410Z,40.58
2023-01-19T10:56:00.753Z,40.59
2023-01-19T10:56:12.295Z,40.59
2023-01-19T10:56:23.632Z,40.57
2023-01-19T10:56:35.279Z,40.59
2023-01-19T10:56:46.638Z,40.58
2023-01-19T10:56:58.309Z,40.58
2023-01-19T10:57:09.609Z,40.58
2023-01-19T10:57:21.212Z,40.59
2023-01-19T10:57:32.585Z,40.60
2023-01-19T10:57:44.149Z,40.58
2023-01-19T10:57:55.445Z,40.58
2023-01-19T10:58:07.006Z,40.57
2023-01-19T10:58:19.032Z,40.60
2023-01-19T10:58:30.571Z,40.60
2023-01-19T10:58:41.877Z,40.59
2023-01-19T10:58:53.496Z,40.60
2023-01-19T10:59:04.879Z,40.61
2023-01-19T10:59:16.493Z,40.59
2023-01-19T10:59:27.844Z,40.60
2023-01-19T10:59:39.379Z,40.61
2023-01-19T10:59:50.824Z,40.59
2023-01-19T11:00:02.659Z,40.59
2023-01-19T11:00:13.934Z,40.62